sensor_id;sensor_type;location;lat;lon;timestamp;P1;durP1;ratioP1;P2;durP2;ratioP2
40541;SDS011;49288;52.194;5.676;2023-08-08T00:01:12;15.63;;;7.27;;
40541;SDS011;49288;52.194;5.676;2023-08-08T00:06:14;11.85;;;6.40;;
40541;SDS011;49288;52.194;5.676;2023-08-08T00:11:17;18.52;;;7.28;;
40541;SDS011;49288;52.194;5.676;2023-08-08T00:16:20;17.50;;;9.23;;
40541;SDS011;49288;52.194;5.676;2023-08-08T00:21:22;14.15;;;8.13;;
40541;SDS011;49288;52.194;5.676;2023-08-08T00:26:28;18.35;;;7.90;;
40541;SDS011;49288;52.194;5.676;2023-08-08T00:31:30;14.38;;;6.45;;
40541;SDS011;49288;52.194;5.676;2023-08-08T00:36:33;16.65;;;6.82;;
40541;SDS011;49288;52.194;5.676;2023-08-08T00:41:36;15.52;;;6.82;;
40541;SDS011;49288;52.194;5.676;2023-08-08T00:46:38;21.60;;;7.28;;
40541;SDS011;49288;52.194;5.676;2023-08-08T00:51:42;20.42;;;7.03;;
40541;SDS011;49288;52.194;5.676;2023-08-08T00:56:45;18.05;;;6.75;;
40541;SDS011;49288;52.194;5.676;2023-08-08T01:01:48;15.30;;;6.13;;
40541;SDS011;49288;52.194;5.676;2023-08-08T01:12:25;23.83;;;8.02;;
40541;SDS011;49288;52.194;5.676;2023-08-08T01:17:28;21.77;;;8.23;;
40541;SDS011;49288;52.194;5.676;2023-08-08T01:22:43;23.25;;;7.07;;
40541;SDS011;49288;52.194;5.676;2023-08-08T01:28:08;23.02;;;5.85;;
40541;SDS011;49288;52.194;5.676;2023-08-08T01:33:11;14.23;;;5.20;;
40541;SDS011;49288;52.194;5.676;2023-08-08T01:38:14;17.60;;;5.80;;
40541;SDS011;49288;52.194;5.676;2023-08-08T01:43:22;28.60;;;6.68;;
40541;SDS011;49288;52.194;5.676;2023-08-08T01:48:27;13.30;;;4.40;;
40541;SDS011;49288;52.194;5.676;2023-08-08T01:53:30;17.48;;;5.85;;
40541;SDS011;49288;52.194;5.676;2023-08-08T01:58:34;14.43;;;5.38;;
40541;SDS011;49288;52.194;5.676;2023-08-08T02:03:37;19.13;;;6.32;;
40541;SDS011;49288;52.194;5.676;2023-08-08T02:08:40;12.05;;;5.82;;
40541;SDS011;49288;52.194;5.676;2023-08-08T02:13:43;22.15;;;6.63;;
40541;SDS011;49288;52.194;5.676;2023-08-08T02:18:46;11.77;;;5.28;;
40541;SDS011;49288;52.194;5.676;2023-08-08T02:23:48;20.77;;;6.68;;
40541;SDS011;49288;52.194;5.676;2023-08-08T02:28:52;23.13;;;7.40;;
40541;SDS011;49288;52.194;5.676;2023-08-08T02:33:54;18.27;;;6.65;;
40541;SDS011;49288;52.194;5.676;2023-08-08T02:38:58;17.30;;;7.27;;
40541;SDS011;49288;52.194;5.676;2023-08-08T02:44:01;14.60;;;6.53;;
40541;SDS011;49288;52.194;5.676;2023-08-08T02:49:05;23.85;;;7.40;;
40541;SDS011;49288;52.194;5.676;2023-08-08T02:54:07;15.10;;;6.82;;
40541;SDS011;49288;52.194;5.676;2023-08-08T03:04:15;21.67;;;6.43;;
40541;SDS011;49288;52.194;5.676;2023-08-08T03:09:19;15.80;;;6.05;;
40541;SDS011;49288;52.194;5.676;2023-08-08T03:14:22;21.73;;;6.78;;
40541;SDS011;49288;52.194;5.676;2023-08-08T03:19:26;20.52;;;7.03;;
40541;SDS011;49288;52.194;5.676;2023-08-08T03:24:32;18.80;;;7.55;;
40541;SDS011;49288;52.194;5.676;2023-08-08T03:29:35;16.98;;;7.00;;
40541;SDS011;49288;52.194;5.676;2023-08-08T03:34:38;16.55;;;6.60;;
40541;SDS011;49288;52.194;5.676;2023-08-08T03:39:42;17.98;;;7.18;;
40541;SDS011;49288;52.194;5.676;2023-08-08T03:44:45;20.02;;;6.70;;
40541;SDS011;49288;52.194;5.676;2023-08-08T03:49:48;18.00;;;7.40;;
40541;SDS011;49288;52.194;5.676;2023-08-08T03:54:52;15.60;;;6.78;;
40541;SDS011;49288;52.194;5.676;2023-08-08T03:59:56;17.30;;;7.10;;
40541;SDS011;49288;52.194;5.676;2023-08-08T04:05:00;21.17;;;7.83;;
40541;SDS011;49288;52.194;5.676;2023-08-08T04:10:03;24.23;;;8.75;;
40541;SDS011;49288;52.194;5.676;2023-08-08T04:15:06;22.42;;;8.27;;
40541;SDS011;49288;52.194;5.676;2023-08-08T04:20:10;22.02;;;7.47;;
40541;SDS011;49288;52.194;5.676;2023-08-08T04:25:14;15.43;;;7.57;;
40541;SDS011;49288;52.194;5.676;2023-08-08T04:30:17;24.98;;;8.10;;
40541;SDS011;49288;52.194;5.676;2023-08-08T04:35:21;21.30;;;7.70;;
40541;SDS011;49288;52.194;5.676;2023-08-08T04:40:23;22.77;;;7.57;;
40541;SDS011;49288;52.194;5.676;2023-08-08T04:45:26;15.13;;;5.78;;
40541;SDS011;49288;52.194;5.676;2023-08-08T04:50:31;11.20;;;5.45;;
40541;SDS011;49288;52.194;5.676;2023-08-08T04:55:33;17.05;;;7.05;;
40541;SDS011;49288;52.194;5.676;2023-08-08T05:00:36;20.60;;;7.57;;
40541;SDS011;49288;52.194;5.676;2023-08-08T05:05:39;18.00;;;7.93;;
40541;SDS011;49288;52.194;5.676;2023-08-08T05:10:41;16.60;;;7.85;;
40541;SDS011;49288;52.194;5.676;2023-08-08T05:15:44;34.10;;;9.13;;
40541;SDS011;49288;52.194;5.676;2023-08-08T05:20:47;18.25;;;6.55;;
40541;SDS011;49288;52.194;5.676;2023-08-08T05:25:49;13.88;;;5.78;;
40541;SDS011;49288;52.194;5.676;2023-08-08T05:30:52;19.60;;;6.88;;
40541;SDS011;49288;52.194;5.676;2023-08-08T05:35:55;17.65;;;6.57;;
40541;SDS011;49288;52.194;5.676;2023-08-08T05:40:58;23.05;;;7.18;;
40541;SDS011;49288;52.194;5.676;2023-08-08T05:46:00;10.38;;;5.30;;
40541;SDS011;49288;52.194;5.676;2023-08-08T05:51:03;27.98;;;6.05;;
40541;SDS011;49288;52.194;5.676;2023-08-08T05:56:07;12.77;;;4.70;;
40541;SDS011;49288;52.194;5.676;2023-08-08T06:01:11;15.75;;;4.43;;
40541;SDS011;49288;52.194;5.676;2023-08-08T06:06:14;15.35;;;4.70;;
40541;SDS011;49288;52.194;5.676;2023-08-08T06:11:17;9.40;;;3.90;;
40541;SDS011;49288;52.194;5.676;2023-08-08T06:16:20;11.27;;;3.92;;
40541;SDS011;49288;52.194;5.676;2023-08-08T06:21:24;16.75;;;4.68;;
40541;SDS011;49288;52.194;5.676;2023-08-08T06:26:27;16.75;;;4.28;;
40541;SDS011;49288;52.194;5.676;2023-08-08T06:31:29;8.00;;;3.53;;
40541;SDS011;49288;52.194;5.676;2023-08-08T06:36:33;17.70;;;4.03;;
40541;SDS011;49288;52.194;5.676;2023-08-08T06:41:35;9.73;;;3.15;;
40541;SDS011;49288;52.194;5.676;2023-08-08T06:46:38;8.55;;;3.50;;
40541;SDS011;49288;52.194;5.676;2023-08-08T06:51:41;10.98;;;2.40;;
40541;SDS011;49288;52.194;5.676;2023-08-08T06:56:43;11.10;;;2.88;;
40541;SDS011;49288;52.194;5.676;2023-08-08T07:01:46;16.50;;;2.42;;
40541;SDS011;49288;52.194;5.676;2023-08-08T07:06:48;10.98;;;2.53;;
40541;SDS011;49288;52.194;5.676;2023-08-08T07:11:51;12.60;;;2.80;;
40541;SDS011;49288;52.194;5.676;2023-08-08T07:16:54;7.65;;;2.28;;
40541;SDS011;49288;52.194;5.676;2023-08-08T07:21:57;5.20;;;2.00;;
40541;SDS011;49288;52.194;5.676;2023-08-08T07:27:01;7.10;;;2.20;;
40541;SDS011;49288;52.194;5.676;2023-08-08T07:32:03;6.90;;;2.10;;
40541;SDS011;49288;52.194;5.676;2023-08-08T07:37:06;11.60;;;2.33;;
40541;SDS011;49288;52.194;5.676;2023-08-08T07:42:12;12.75;;;1.92;;
40541;SDS011;49288;52.194;5.676;2023-08-08T07:47:16;9.13;;;2.28;;
40541;SDS011;49288;52.194;5.676;2023-08-08T07:52:19;8.18;;;2.10;;
40541;SDS011;49288;52.194;5.676;2023-08-08T07:57:22;8.55;;;2.30;;
40541;SDS011;49288;52.194;5.676;2023-08-08T08:02:24;5.00;;;1.65;;
40541;SDS011;49288;52.194;5.676;2023-08-08T08:07:27;6.20;;;2.03;;
40541;SDS011;49288;52.194;5.676;2023-08-08T08:12:30;4.88;;;1.58;;
40541;SDS011;49288;52.194;5.676;2023-08-08T08:17:34;8.00;;;1.60;;
40541;SDS011;49288;52.194;5.676;2023-08-08T08:22:37;4.97;;;2.00;;
40541;SDS011;49288;52.194;5.676;2023-08-08T08:27:40;5.70;;;1.77;;
40541;SDS011;49288;52.194;5.676;2023-08-08T08:32:43;8.20;;;1.70;;
40541;SDS011;49288;52.194;5.676;2023-08-08T08:37:46;10.05;;;1.80;;
40541;SDS011;49288;52.194;5.676;2023-08-08T08:42:49;3.35;;;1.38;;
40541;SDS011;49288;52.194;5.676;2023-08-08T08:47:52;2.78;;;1.20;;
40541;SDS011;49288;52.194;5.676;2023-08-08T08:52:58;7.28;;;1.60;;
40541;SDS011;49288;52.194;5.676;2023-08-08T08:58:01;4.75;;;1.40;;
40541;SDS011;49288;52.194;5.676;2023-08-08T09:03:04;3.25;;;1.48;;
40541;SDS011;49288;52.194;5.676;2023-08-08T09:08:07;3.37;;;1.40;;
40541;SDS011;49288;52.194;5.676;2023-08-08T09:13:11;3.45;;;1.30;;
40541;SDS011;49288;52.194;5.676;2023-08-08T09:18:14;4.10;;;1.50;;
40541;SDS011;49288;52.194;5.676;2023-08-08T09:23:19;5.38;;;1.65;;
40541;SDS011;49288;52.194;5.676;2023-08-08T09:28:23;3.63;;;1.25;;
40541;SDS011;49288;52.194;5.676;2023-08-08T09:33:30;4.05;;;1.20;;
40541;SDS011;49288;52.194;5.676;2023-08-08T09:38:33;3.50;;;1.38;;
40541;SDS011;49288;52.194;5.676;2023-08-08T09:43:37;6.53;;;1.17;;
40541;SDS011;49288;52.194;5.676;2023-08-08T09:53:42;3.20;;;1.40;;
40541;SDS011;49288;52.194;5.676;2023-08-08T09:58:46;6.75;;;1.42;;
40541;SDS011;49288;52.194;5.676;2023-08-08T10:03:51;5.18;;;1.70;;
40541;SDS011;49288;52.194;5.676;2023-08-08T10:09:13;6.25;;;1.40;;
40541;SDS011;49288;52.194;5.676;2023-08-08T10:14:15;5.65;;;1.60;;
40541;SDS011;49288;52.194;5.676;2023-08-08T10:19:21;5.40;;;1.93;;
40541;SDS011;49288;52.194;5.676;2023-08-08T10:24:24;6.15;;;1.52;;
40541;SDS011;49288;52.194;5.676;2023-08-08T10:29:27;3.22;;;1.40;;
40541;SDS011;49288;52.194;5.676;2023-08-08T10:35:06;3.88;;;1.65;;
40541;SDS011;49288;52.194;5.676;2023-08-08T10:40:03;4.28;;;1.48;;
40541;SDS011;49288;52.194;5.676;2023-08-08T10:45:11;3.63;;;1.55;;
40541;SDS011;49288;52.194;5.676;2023-08-08T10:50:22;4.75;;;1.90;;
40541;SDS011;49288;52.194;5.676;2023-08-08T10:55:26;5.70;;;1.42;;
40541;SDS011;49288;52.194;5.676;2023-08-08T11:00:33;5.03;;;2.28;;
40541;SDS011;49288;52.194;5.676;2023-08-08T11:05:37;4.93;;;1.50;;
40541;SDS011;49288;52.194;5.676;2023-08-08T11:10:41;4.38;;;1.52;;
40541;SDS011;49288;52.194;5.676;2023-08-08T11:15:44;3.22;;;1.48;;
40541;SDS011;49288;52.194;5.676;2023-08-08T11:20:47;4.70;;;1.47;;
40541;SDS011;49288;52.194;5.676;2023-08-08T11:25:51;5.20;;;1.60;;
40541;SDS011;49288;52.194;5.676;2023-08-08T11:31:13;5.47;;;1.52;;
40541;SDS011;49288;52.194;5.676;2023-08-08T11:36:16;7.40;;;1.60;;
40541;SDS011;49288;52.194;5.676;2023-08-08T11:41:20;3.03;;;1.60;;
40541;SDS011;49288;52.194;5.676;2023-08-08T11:46:25;3.95;;;1.55;;
40541;SDS011;49288;52.194;5.676;2023-08-08T11:51:28;4.47;;;1.50;;
40541;SDS011;49288;52.194;5.676;2023-08-08T11:56:35;5.68;;;1.45;;
40541;SDS011;49288;52.194;5.676;2023-08-08T12:01:38;2.80;;;1.35;;
40541;SDS011;49288;52.194;5.676;2023-08-08T12:06:41;6.10;;;1.97;;
40541;SDS011;49288;52.194;5.676;2023-08-08T12:11:47;5.35;;;1.40;;
40541;SDS011;49288;52.194;5.676;2023-08-08T12:16:50;3.80;;;1.57;;
40541;SDS011;49288;52.194;5.676;2023-08-08T12:21:52;3.67;;;1.47;;
40541;SDS011;49288;52.194;5.676;2023-08-08T12:26:55;5.67;;;1.60;;
40541;SDS011;49288;52.194;5.676;2023-08-08T12:31:58;5.22;;;1.67;;
40541;SDS011;49288;52.194;5.676;2023-08-08T12:37:01;2.73;;;1.47;;
40541;SDS011;49288;52.194;5.676;2023-08-08T12:42:05;3.35;;;1.42;;
40541;SDS011;49288;52.194;5.676;2023-08-08T12:47:10;7.20;;;1.67;;
40541;SDS011;49288;52.194;5.676;2023-08-08T12:52:15;4.03;;;1.60;;
40541;SDS011;49288;52.194;5.676;2023-08-08T12:57:27;4.35;;;1.45;;
40541;SDS011;49288;52.194;5.676;2023-08-08T13:02:32;3.55;;;1.60;;
40541;SDS011;49288;52.194;5.676;2023-08-08T13:07:35;3.33;;;1.30;;
40541;SDS011;49288;52.194;5.676;2023-08-08T13:12:38;5.78;;;1.80;;
40541;SDS011;49288;52.194;5.676;2023-08-08T13:17:41;2.87;;;1.27;;
40541;SDS011;49288;52.194;5.676;2023-08-08T13:22:43;4.43;;;1.52;;
40541;SDS011;49288;52.194;5.676;2023-08-08T13:27:46;4.80;;;1.70;;
40541;SDS011;49288;52.194;5.676;2023-08-08T13:32:50;5.10;;;1.60;;
40541;SDS011;49288;52.194;5.676;2023-08-08T13:37:52;3.35;;;1.60;;
40541;SDS011;49288;52.194;5.676;2023-08-08T13:42:56;6.47;;;1.70;;
40541;SDS011;49288;52.194;5.676;2023-08-08T13:47:59;3.67;;;1.70;;
40541;SDS011;49288;52.194;5.676;2023-08-08T13:53:02;3.38;;;1.70;;
40541;SDS011;49288;52.194;5.676;2023-08-08T13:58:06;5.70;;;1.70;;
40541;SDS011;49288;52.194;5.676;2023-08-08T14:03:09;4.78;;;1.48;;
40541;SDS011;49288;52.194;5.676;2023-08-08T14:08:14;2.88;;;1.50;;
40541;SDS011;49288;52.194;5.676;2023-08-08T14:13:17;4.15;;;1.60;;
40541;SDS011;49288;52.194;5.676;2023-08-08T14:18:21;5.68;;;1.70;;
40541;SDS011;49288;52.194;5.676;2023-08-08T14:23:24;6.07;;;1.63;;
40541;SDS011;49288;52.194;5.676;2023-08-08T14:28:28;8.23;;;1.50;;
40541;SDS011;49288;52.194;5.676;2023-08-08T14:33:32;2.10;;;1.33;;
40541;SDS011;49288;52.194;5.676;2023-08-08T14:38:36;5.05;;;1.60;;
40541;SDS011;49288;52.194;5.676;2023-08-08T14:43:39;6.65;;;1.73;;
40541;SDS011;49288;52.194;5.676;2023-08-08T14:48:42;6.40;;;1.70;;
40541;SDS011;49288;52.194;5.676;2023-08-08T14:53:44;5.60;;;1.67;;
40541;SDS011;49288;52.194;5.676;2023-08-08T14:58:47;4.65;;;2.15;;
40541;SDS011;49288;52.194;5.676;2023-08-08T15:03:50;13.63;;;2.70;;
40541;SDS011;49288;52.194;5.676;2023-08-08T15:08:53;5.88;;;2.00;;
40541;SDS011;49288;52.194;5.676;2023-08-08T15:13:56;5.50;;;1.60;;
40541;SDS011;49288;52.194;5.676;2023-08-08T15:18:59;4.82;;;2.20;;
40541;SDS011;49288;52.194;5.676;2023-08-08T15:24:02;6.07;;;2.17;;
40541;SDS011;49288;52.194;5.676;2023-08-08T15:29:05;5.13;;;1.97;;
40541;SDS011;49288;52.194;5.676;2023-08-08T15:34:07;7.83;;;2.03;;
40541;SDS011;49288;52.194;5.676;2023-08-08T15:39:10;3.87;;;1.67;;
40541;SDS011;49288;52.194;5.676;2023-08-08T15:44:15;4.78;;;2.03;;
40541;SDS011;49288;52.194;5.676;2023-08-08T15:49:18;2.95;;;1.80;;
40541;SDS011;49288;52.194;5.676;2023-08-08T15:54:20;3.63;;;1.67;;
40541;SDS011;49288;52.194;5.676;2023-08-08T15:59:24;6.90;;;2.00;;
40541;SDS011;49288;52.194;5.676;2023-08-08T16:04:28;6.10;;;2.15;;
40541;SDS011;49288;52.194;5.676;2023-08-08T16:09:33;3.28;;;1.65;;
40541;SDS011;49288;52.194;5.676;2023-08-08T16:14:57;8.88;;;2.20;;
40541;SDS011;49288;52.194;5.676;2023-08-08T16:25:03;5.53;;;2.03;;
40541;SDS011;49288;52.194;5.676;2023-08-08T16:30:08;4.40;;;1.90;;
40541;SDS011;49288;52.194;5.676;2023-08-08T16:35:11;2.90;;;1.90;;
40541;SDS011;49288;52.194;5.676;2023-08-08T16:40:17;4.32;;;2.05;;
40541;SDS011;49288;52.194;5.676;2023-08-08T16:45:20;5.32;;;2.50;;
40541;SDS011;49288;52.194;5.676;2023-08-08T16:50:23;8.02;;;2.20;;
40541;SDS011;49288;52.194;5.676;2023-08-08T16:55:25;7.45;;;2.40;;
40541;SDS011;49288;52.194;5.676;2023-08-08T17:00:28;5.13;;;2.28;;
40541;SDS011;49288;52.194;5.676;2023-08-08T17:05:31;6.43;;;2.10;;
40541;SDS011;49288;52.194;5.676;2023-08-08T17:10:34;6.45;;;2.60;;
40541;SDS011;49288;52.194;5.676;2023-08-08T17:15:39;5.45;;;2.50;;
40541;SDS011;49288;52.194;5.676;2023-08-08T17:20:43;6.60;;;2.42;;
40541;SDS011;49288;52.194;5.676;2023-08-08T17:25:46;7.57;;;2.17;;
40541;SDS011;49288;52.194;5.676;2023-08-08T17:30:50;5.88;;;2.33;;
40541;SDS011;49288;52.194;5.676;2023-08-08T17:35:53;10.25;;;2.78;;
40541;SDS011;49288;52.194;5.676;2023-08-08T17:40:55;9.02;;;2.90;;
40541;SDS011;49288;52.194;5.676;2023-08-08T17:45:58;8.55;;;2.78;;
40541;SDS011;49288;52.194;5.676;2023-08-08T17:51:02;5.13;;;2.30;;
40541;SDS011;49288;52.194;5.676;2023-08-08T17:56:05;5.70;;;2.28;;
40541;SDS011;49288;52.194;5.676;2023-08-08T18:01:08;6.43;;;2.43;;
40541;SDS011;49288;52.194;5.676;2023-08-08T18:06:11;5.97;;;2.37;;
40541;SDS011;49288;52.194;5.676;2023-08-08T18:11:15;6.38;;;2.80;;
40541;SDS011;49288;52.194;5.676;2023-08-08T18:16:18;7.43;;;2.63;;
40541;SDS011;49288;52.194;5.676;2023-08-08T18:21:20;5.15;;;2.47;;
40541;SDS011;49288;52.194;5.676;2023-08-08T18:26:23;5.60;;;2.40;;
40541;SDS011;49288;52.194;5.676;2023-08-08T18:31:26;5.50;;;2.25;;
40541;SDS011;49288;52.194;5.676;2023-08-08T18:36:29;7.40;;;2.80;;
40541;SDS011;49288;52.194;5.676;2023-08-08T18:41:35;5.38;;;2.58;;
40541;SDS011;49288;52.194;5.676;2023-08-08T18:46:38;11.25;;;2.90;;
40541;SDS011;49288;52.194;5.676;2023-08-08T18:51:41;7.35;;;2.88;;
40541;SDS011;49288;52.194;5.676;2023-08-08T18:56:44;5.30;;;2.97;;
40541;SDS011;49288;52.194;5.676;2023-08-08T19:01:47;7.57;;;2.80;;
40541;SDS011;49288;52.194;5.676;2023-08-08T19:06:50;5.53;;;3.40;;
40541;SDS011;49288;52.194;5.676;2023-08-08T19:11:53;11.18;;;4.18;;
40541;SDS011;49288;52.194;5.676;2023-08-08T19:16:56;7.60;;;3.90;;
40541;SDS011;49288;52.194;5.676;2023-08-08T19:22:00;10.75;;;4.25;;
40541;SDS011;49288;52.194;5.676;2023-08-08T19:27:05;9.18;;;4.18;;
40541;SDS011;49288;52.194;5.676;2023-08-08T19:32:08;6.38;;;3.72;;
40541;SDS011;49288;52.194;5.676;2023-08-08T19:37:11;7.00;;;4.05;;
40541;SDS011;49288;52.194;5.676;2023-08-08T19:42:13;9.90;;;4.85;;
40541;SDS011;49288;52.194;5.676;2023-08-08T19:47:16;12.30;;;5.13;;
40541;SDS011;49288;52.194;5.676;2023-08-08T19:52:19;8.95;;;4.68;;
40541;SDS011;49288;52.194;5.676;2023-08-08T19:57:21;8.32;;;4.32;;
40541;SDS011;49288;52.194;5.676;2023-08-08T20:02:24;8.65;;;5.07;;
40541;SDS011;49288;52.194;5.676;2023-08-08T20:07:27;9.82;;;5.32;;
40541;SDS011;49288;52.194;5.676;2023-08-08T20:12:33;9.55;;;4.93;;
40541;SDS011;49288;52.194;5.676;2023-08-08T20:17:36;11.15;;;5.00;;
40541;SDS011;49288;52.194;5.676;2023-08-08T20:22:57;7.53;;;4.70;;
40541;SDS011;49288;52.194;5.676;2023-08-08T20:28:19;8.20;;;4.32;;
40541;SDS011;49288;52.194;5.676;2023-08-08T20:33:21;10.40;;;5.40;;
40541;SDS011;49288;52.194;5.676;2023-08-08T20:38:24;10.20;;;4.53;;
40541;SDS011;49288;52.194;5.676;2023-08-08T20:43:27;6.43;;;4.07;;
40541;SDS011;49288;52.194;5.676;2023-08-08T20:48:29;12.68;;;4.88;;
40541;SDS011;49288;52.194;5.676;2023-08-08T20:53:32;11.77;;;4.82;;
40541;SDS011;49288;52.194;5.676;2023-08-08T20:58:35;9.40;;;5.00;;
40541;SDS011;49288;52.194;5.676;2023-08-08T21:03:37;11.10;;;5.05;;
40541;SDS011;49288;52.194;5.676;2023-08-08T21:08:40;8.80;;;5.43;;
40541;SDS011;49288;52.194;5.676;2023-08-08T21:13:43;13.43;;;5.35;;
40541;SDS011;49288;52.194;5.676;2023-08-08T21:18:45;7.95;;;5.00;;
40541;SDS011;49288;52.194;5.676;2023-08-08T21:23:48;8.88;;;5.60;;
40541;SDS011;49288;52.194;5.676;2023-08-08T21:28:51;11.65;;;6.50;;
40541;SDS011;49288;52.194;5.676;2023-08-08T21:33:54;11.90;;;6.10;;
40541;SDS011;49288;52.194;5.676;2023-08-08T21:39:00;9.35;;;6.00;;
40541;SDS011;49288;52.194;5.676;2023-08-08T21:44:03;12.70;;;7.03;;
40541;SDS011;49288;52.194;5.676;2023-08-08T21:49:05;8.60;;;5.85;;
40541;SDS011;49288;52.194;5.676;2023-08-08T21:54:08;7.68;;;5.30;;
40541;SDS011;49288;52.194;5.676;2023-08-08T21:59:12;9.40;;;6.18;;
40541;SDS011;49288;52.194;5.676;2023-08-08T22:09:19;17.27;;;6.10;;
40541;SDS011;49288;52.194;5.676;2023-08-08T22:14:29;8.38;;;5.72;;
40541;SDS011;49288;52.194;5.676;2023-08-08T22:19:32;13.35;;;6.18;;
40541;SDS011;49288;52.194;5.676;2023-08-08T22:24:35;9.98;;;6.43;;
40541;SDS011;49288;52.194;5.676;2023-08-08T22:29:38;9.55;;;5.82;;
40541;SDS011;49288;52.194;5.676;2023-08-08T22:34:41;10.38;;;5.97;;
40541;SDS011;49288;52.194;5.676;2023-08-08T22:39:43;15.77;;;6.05;;
40541;SDS011;49288;52.194;5.676;2023-08-08T22:44:47;11.82;;;6.15;;
40541;SDS011;49288;52.194;5.676;2023-08-08T22:49:51;10.88;;;6.43;;
40541;SDS011;49288;52.194;5.676;2023-08-08T22:54:55;8.98;;;6.28;;
40541;SDS011;49288;52.194;5.676;2023-08-08T22:59:58;10.05;;;6.63;;
40541;SDS011;49288;52.194;5.676;2023-08-08T23:05:01;9.45;;;6.88;;
40541;SDS011;49288;52.194;5.676;2023-08-08T23:10:04;9.63;;;7.22;;
40541;SDS011;49288;52.194;5.676;2023-08-08T23:15:07;9.40;;;5.90;;
40541;SDS011;49288;52.194;5.676;2023-08-08T23:20:11;10.03;;;6.93;;
40541;SDS011;49288;52.194;5.676;2023-08-08T23:25:14;14.48;;;6.80;;
40541;SDS011;49288;52.194;5.676;2023-08-08T23:30:17;8.73;;;5.80;;
40541;SDS011;49288;52.194;5.676;2023-08-08T23:35:20;10.48;;;7.10;;
40541;SDS011;49288;52.194;5.676;2023-08-08T23:40:24;7.93;;;5.73;;
40541;SDS011;49288;52.194;5.676;2023-08-08T23:45:26;9.35;;;6.15;;
40541;SDS011;49288;52.194;5.676;2023-08-08T23:50:29;10.55;;;6.70;;
40541;SDS011;49288;52.194;5.676;2023-08-08T23:55:32;10.65;;;7.35;;
